Time;durP1;ratioP1;P1;durP2;ratioP2;P2;SDS_P1;SDS_P2;PMS_P1;PMS_P2;Temp;Humidity;BMP_temperature;BMP_pressure;BME280_temperature;BME280_humidity;BME280_pressure;Samples;Min_cycle;Max_cycle;Signal;HPM_P1;HPM_P2
2022/06/27 00:01:21;;;;;;;2.78;1.88;;;;;;;;;;5044773;28;20594;-13
2022/06/27 00:03:48;;;;;;;2.72;1.60;;;;;;;;;;5040216;28;21042;-13
2022/06/27 00:06:19;;;;;;;3.92;1.92;;;;;;;;;;5046765;28;20253;-13
2022/06/27 00:08:47;;;;;;;3.55;2.08;;;;;;;;;;5051564;28;20233;-13
2022/06/27 00:11:15;;;;;;;3.58;2.10;;;;;;;;;;5054958;28;20233;-13
2022/06/27 00:13:42;;;;;;;5.60;2.10;;;;;;;;;;5037541;28;20662;-13
2022/06/27 00:16:11;;;;;;;2.63;1.80;;;;;;;;;;5052940;28;20624;-13
2022/06/27 00:18:58;;;;;;;2.08;1.55;;;;;;;;;;5049280;28;20226;-13
2022/06/27 00:21:26;;;;;;;5.07;2.08;;;;;;;;;;5038074;28;20276;-13
2022/06/27 00:23:53;;;;;;;2.45;1.90;;;;;;;;;;5051159;28;20993;-13
2022/06/27 00:26:20;;;;;;;3.13;1.95;;;;;;;;;;5050553;28;20236;-13
2022/06/27 00:28:48;;;;;;;3.33;1.95;;;;;;;;;;5051077;28;20234;-13
2022/06/27 00:31:16;;;;;;;2.90;1.77;;;;;;;;;;5043680;28;20234;-13
2022/06/27 00:33:44;;;;;;;3.03;1.90;;;;;;;;;;5049213;28;20227;-13
2022/06/27 00:36:11;;;;;;;2.42;2.00;;;;;;;;;;5037074;28;20242;-13
2022/06/27 00:38:39;;;;;;;4.88;2.00;;;;;;;;;;5048906;28;20709;-13
2022/06/27 00:41:06;;;;;;;2.15;1.70;;;;;;;;;;5050781;28;20229;-13
2022/06/27 00:43:35;;;;;;;11.13;1.75;;;;;;;;;;5050250;28;20253;-13
2022/06/27 00:46:02;;;;;;;2.50;1.63;;;;;;;;;;5046746;28;20233;-13
2022/06/27 00:48:31;;;;;;;2.10;1.85;;;;;;;;;;5050604;28;20333;-13
2022/06/27 00:50:58;;;;;;;3.08;1.95;;;;;;;;;;5050073;28;20230;-12
2022/06/27 00:53:28;;;;;;;4.10;1.80;;;;;;;;;;5050717;28;20228;-13
2022/06/27 00:55:55;;;;;;;2.72;1.65;;;;;;;;;;5049937;28;20222;-13
2022/06/27 00:58:23;;;;;;;2.50;1.83;;;;;;;;;;5050604;28;20248;-13
2022/06/27 01:00:52;;;;;;;3.08;1.70;;;;;;;;;;5051419;28;20321;-13
2022/06/27 01:03:20;;;;;;;2.97;1.80;;;;;;;;;;5050769;28;20248;-13
2022/06/27 01:05:52;;;;;;;3.58;2.00;;;;;;;;;;5046463;28;20233;-13
2022/06/27 01:08:19;;;;;;;3.25;1.83;;;;;;;;;;5047588;28;20235;-13
2022/06/27 01:10:47;;;;;;;5.53;1.90;;;;;;;;;;5044796;28;20238;-13
2022/06/27 01:13:14;;;;;;;2.65;2.00;;;;;;;;;;5052996;28;20242;-13
2022/06/27 01:15:41;;;;;;;4.43;2.10;;;;;;;;;;5060785;28;20233;-13
2022/06/27 01:18:09;;;;;;;3.53;2.33;;;;;;;;;;5051999;28;20237;-13
2022/06/27 01:20:36;;;;;;;2.50;1.65;;;;;;;;;;5049768;28;20233;-13
2022/06/27 01:23:05;;;;;;;2.35;1.70;;;;;;;;;;5048586;28;20245;-13
2022/06/27 01:25:33;;;;;;;3.33;2.20;;;;;;;;;;5049543;28;20233;-13
2022/06/27 01:28:00;;;;;;;2.05;1.85;;;;;;;;;;5045644;28;20273;-13
2022/06/27 01:30:28;;;;;;;2.78;2.00;;;;;;;;;;5049192;28;20688;-12
2022/06/27 01:32:55;;;;;;;2.33;1.80;;;;;;;;;;5050313;28;20226;-12
2022/06/27 01:35:23;;;;;;;4.28;2.20;;;;;;;;;;5040614;28;20239;-13
2022/06/27 01:37:50;;;;;;;2.63;2.10;;;;;;;;;;5050145;28;20265;-12
2022/06/27 01:40:19;;;;;;;3.50;1.90;;;;;;;;;;5045039;28;20249;-13
2022/06/27 01:42:46;;;;;;;3.33;2.00;;;;;;;;;;5049376;28;20253;-13
2022/06/27 01:45:13;;;;;;;3.13;2.10;;;;;;;;;;5048355;28;20230;-13
2022/06/27 01:47:41;;;;;;;2.92;1.70;;;;;;;;;;5050833;28;20227;-13
2022/06/27 01:50:09;;;;;;;3.45;2.10;;;;;;;;;;5049679;28;20230;-13
2022/06/27 01:52:36;;;;;;;3.15;1.90;;;;;;;;;;5049427;28;20223;-13
2022/06/27 01:55:04;;;;;;;3.63;2.10;;;;;;;;;;5042153;28;20242;-13
2022/06/27 01:57:31;;;;;;;4.78;2.05;;;;;;;;;;5041274;28;20328;-12
2022/06/27 01:59:59;;;;;;;2.28;1.90;;;;;;;;;;5050116;28;20222;-13
2022/06/27 02:02:26;;;;;;;4.95;2.15;;;;;;;;;;5052110;28;20252;-13
2022/06/27 02:04:54;;;;;;;4.28;1.90;;;;;;;;;;5051129;28;20230;-13
2022/06/27 02:07:21;;;;;;;2.35;1.90;;;;;;;;;;5053222;28;20230;-13
2022/06/27 02:09:48;;;;;;;2.70;2.38;;;;;;;;;;5043795;28;20236;-12
2022/06/27 02:12:23;;;;;;;2.30;1.85;;;;;;;;;;5053193;28;20226;-13
2022/06/27 02:14:52;;;;;;;2.97;2.00;;;;;;;;;;5051636;28;20237;-12
2022/06/27 02:17:19;;;;;;;3.45;1.98;;;;;;;;;;5060442;28;20230;-13
2022/06/27 02:19:46;;;;;;;3.45;2.00;;;;;;;;;;5053220;28;20236;-12
2022/06/27 02:22:14;;;;;;;2.92;1.85;;;;;;;;;;5043425;22;20741;-15
2022/06/27 02:24:42;;;;;;;3.95;1.85;;;;;;;;;;5004940;28;20258;-15
2022/06/27 02:27:09;;;;;;;1.83;1.67;;;;;;;;;;5007049;28;20699;-15
2022/06/27 02:29:36;;;;;;;2.38;1.98;;;;;;;;;;5033623;28;20239;-14
2022/06/27 02:32:06;;;;;;;3.67;2.10;;;;;;;;;;5032054;28;20239;-15
2022/06/27 02:34:33;;;;;;;2.50;2.17;;;;;;;;;;5013126;28;20235;-14
2022/06/27 02:37:01;;;;;;;2.95;2.28;;;;;;;;;;5013663;28;20243;-15
2022/06/27 02:39:29;;;;;;;2.30;1.90;;;;;;;;;;5013399;28;20228;-15
2022/06/27 02:41:57;;;;;;;2.88;2.00;;;;;;;;;;5013249;28;20239;-15
2022/06/27 02:44:26;;;;;;;3.80;1.88;;;;;;;;;;5012175;28;20808;-15
2022/06/27 02:46:53;;;;;;;2.78;1.83;;;;;;;;;;5013288;28;20703;-16
2022/06/27 02:49:22;;;;;;;2.65;2.00;;;;;;;;;;4999190;28;20330;-16
2022/06/27 02:51:52;;;;;;;4.45;2.08;;;;;;;;;;5004865;28;20228;-16
2022/06/27 02:54:20;;;;;;;5.00;1.92;;;;;;;;;;5008529;28;20224;-16
2022/06/27 02:56:50;;;;;;;3.10;1.70;;;;;;;;;;5012716;28;20235;-16
2022/06/27 02:59:18;;;;;;;3.92;2.17;;;;;;;;;;5010212;28;20274;-16
2022/06/27 03:01:45;;;;;;;2.33;1.70;;;;;;;;;;5013446;28;20240;-16
2022/06/27 03:04:12;;;;;;;2.90;2.13;;;;;;;;;;5012740;28;20243;-16
2022/06/27 03:06:43;;;;;;;3.00;2.20;;;;;;;;;;5012392;28;20230;-16
2022/06/27 03:09:10;;;;;;;5.07;2.15;;;;;;;;;;5011779;28;20235;-16
2022/06/27 03:11:38;;;;;;;2.58;2.25;;;;;;;;;;5012628;28;20694;-16
2022/06/27 03:14:06;;;;;;;3.17;2.25;;;;;;;;;;5009720;28;20283;-16
2022/06/27 03:16:34;;;;;;;2.25;1.98;;;;;;;;;;5022822;28;20241;-15
2022/06/27 03:19:03;;;;;;;3.60;2.10;;;;;;;;;;5002896;28;20232;-16
2022/06/27 03:21:30;;;;;;;3.10;1.90;;;;;;;;;;5009762;28;20249;-16
2022/06/27 03:24:00;;;;;;;2.33;2.03;;;;;;;;;;5006417;28;20239;-15
2022/06/27 03:26:27;;;;;;;3.30;2.25;;;;;;;;;;5001368;28;20226;-15
2022/06/27 03:28:55;;;;;;;3.65;2.45;;;;;;;;;;4993797;28;20387;-16
2022/06/27 03:31:22;;;;;;;3.20;2.03;;;;;;;;;;4995917;28;20235;-16
2022/06/27 03:33:50;;;;;;;2.35;2.15;;;;;;;;;;4997586;28;20238;-15
2022/06/27 03:36:18;;;;;;;3.20;2.38;;;;;;;;;;4989724;28;20238;-16
2022/06/27 03:38:45;;;;;;;9.00;2.45;;;;;;;;;;4995435;28;20227;-15
2022/06/27 03:41:14;;;;;;;3.00;2.40;;;;;;;;;;4992409;28;20236;-15
2022/06/27 03:43:41;;;;;;;5.55;2.35;;;;;;;;;;4991776;28;20247;-15
2022/06/27 03:46:08;;;;;;;5.13;2.47;;;;;;;;;;4995023;28;20683;-15
2022/06/27 03:51:21;;;;;;;5.95;3.50;;;;;;;;;;4992574;28;20632;-15
2022/06/27 03:53:48;;;;;;;3.58;2.67;;;;;;;;;;4992010;28;20958;-15
2022/06/27 03:56:17;;;;;;;3.95;2.65;;;;;;;;;;4991216;28;20714;-16
2022/06/27 03:58:44;;;;;;;4.07;2.78;;;;;;;;;;4992524;28;20247;-15
2022/06/27 04:01:12;;;;;;;4.35;2.47;;;;;;;;;;4991839;28;20628;-15
2022/06/27 04:03:39;;;;;;;6.28;2.25;;;;;;;;;;4992254;28;20733;-15
2022/06/27 04:06:07;;;;;;;4.70;2.10;;;;;;;;;;4991516;28;21023;-15
2022/06/27 04:08:34;;;;;;;2.85;2.40;;;;;;;;;;4992414;28;20240;-15
2022/06/27 04:11:01;;;;;;;2.97;1.90;;;;;;;;;;4991896;28;20232;-15
2022/06/27 04:13:30;;;;;;;7.68;2.45;;;;;;;;;;4992192;28;20228;-15
2022/06/27 04:15:57;;;;;;;3.75;2.28;;;;;;;;;;4991017;28;20236;-15
2022/06/27 04:18:25;;;;;;;3.60;2.30;;;;;;;;;;4992174;28;20306;-15
2022/06/27 04:20:53;;;;;;;4.40;2.33;;;;;;;;;;4992059;28;20228;-16
2022/06/27 04:23:20;;;;;;;3.00;2.40;;;;;;;;;;4991985;28;20236;-15
2022/06/27 04:25:47;;;;;;;2.80;2.10;;;;;;;;;;4990631;28;20975;-16
2022/06/27 04:28:15;;;;;;;3.15;2.10;;;;;;;;;;4991277;28;20239;-16
2022/06/27 04:30:44;;;;;;;4.20;2.75;;;;;;;;;;4992367;28;20232;-15
2022/06/27 04:33:12;;;;;;;3.65;2.33;;;;;;;;;;4991957;28;20235;-16
2022/06/27 04:35:40;;;;;;;3.90;2.45;;;;;;;;;;4992054;28;20251;-16
2022/06/27 04:38:07;;;;;;;3.42;2.50;;;;;;;;;;4991214;28;20232;-16
2022/06/27 04:40:35;;;;;;;5.25;2.67;;;;;;;;;;4991869;28;20258;-16
2022/06/27 04:43:08;;;;;;;4.43;2.33;;;;;;;;;;4991647;28;21003;-16
2022/06/27 04:45:36;;;;;;;5.90;2.20;;;;;;;;;;4996246;28;20238;-16
2022/06/27 04:48:07;;;;;;;3.13;2.10;;;;;;;;;;5011040;28;20279;-15
2022/06/27 04:50:35;;;;;;;2.78;2.50;;;;;;;;;;4991161;28;20611;-16
2022/06/27 04:53:04;;;;;;;2.55;2.20;;;;;;;;;;4991222;28;20682;-16
2022/06/27 04:55:32;;;;;;;3.38;2.25;;;;;;;;;;4991151;28;20236;-16
2022/06/27 04:57:59;;;;;;;3.75;2.28;;;;;;;;;;4991517;28;20228;-16
2022/06/27 05:00:27;;;;;;;6.80;2.50;;;;;;;;;;4990796;28;20224;-16
2022/06/27 05:02:55;;;;;;;6.57;2.55;;;;;;;;;;4995827;28;21131;-16
2022/06/27 05:05:24;;;;;;;5.90;2.47;;;;;;;;;;5002776;28;20994;-16
2022/06/27 05:07:52;;;;;;;6.13;3.17;;;;;;;;;;5007501;28;20236;-15
2022/06/27 05:10:19;;;;;;;5.00;2.60;;;;;;;;;;4990401;28;20235;-15
2022/06/27 05:12:47;;;;;;;5.38;2.75;;;;;;;;;;4991121;28;20228;-15
2022/06/27 05:15:14;;;;;;;4.13;3.10;;;;;;;;;;4990917;28;20236;-15
2022/06/27 05:17:43;;;;;;;3.80;2.70;;;;;;;;;;4991341;28;20711;-15
2022/06/27 05:20:11;;;;;;;2.53;2.30;;;;;;;;;;4991151;28;20228;-15
2022/06/27 05:22:39;;;;;;;3.03;2.70;;;;;;;;;;4991608;28;20256;-15
2022/06/27 05:25:08;;;;;;;5.00;3.03;;;;;;;;;;4990987;28;20239;-15
2022/06/27 05:27:35;;;;;;;5.82;2.60;;;;;;;;;;5003076;28;20239;-15
2022/06/27 05:30:04;;;;;;;4.03;2.47;;;;;;;;;;4992154;28;20758;-15
2022/06/27 05:32:31;;;;;;;2.78;2.40;;;;;;;;;;4980852;28;20228;-15
2022/06/27 05:34:59;;;;;;;3.05;2.72;;;;;;;;;;4998859;28;20239;-15
2022/06/27 05:37:26;;;;;;;5.03;2.70;;;;;;;;;;5004933;28;20235;-15
2022/06/27 05:39:55;;;;;;;3.63;2.60;;;;;;;;;;5000536;28;20228;-15
2022/06/27 05:42:23;;;;;;;3.75;2.60;;;;;;;;;;4996663;28;20239;-15
2022/06/27 05:44:50;;;;;;;2.97;2.35;;;;;;;;;;4993462;28;20244;-15
2022/06/27 05:47:18;;;;;;;3.60;2.50;;;;;;;;;;4994212;28;20644;-15
2022/06/27 05:49:46;;;;;;;4.28;2.88;;;;;;;;;;4991950;28;20243;-15
2022/06/27 05:52:13;;;;;;;3.58;2.50;;;;;;;;;;4988498;28;20959;-15
2022/06/27 05:54:41;;;;;;;5.55;2.55;;;;;;;;;;4986432;28;20236;-15
2022/06/27 05:57:11;;;;;;;3.20;2.90;;;;;;;;;;4987726;28;20235;-15
2022/06/27 05:59:39;;;;;;;3.92;2.58;;;;;;;;;;4990488;28;20224;-15
2022/06/27 06:02:06;;;;;;;3.38;2.40;;;;;;;;;;4990473;28;20243;-15
2022/06/27 06:04:34;;;;;;;4.18;2.28;;;;;;;;;;4985801;28;21076;-15
2022/06/27 06:07:01;;;;;;;4.03;2.38;;;;;;;;;;4990508;28;20236;-15
2022/06/27 06:09:29;;;;;;;3.20;2.70;;;;;;;;;;4993186;28;20243;-15
2022/06/27 06:11:56;;;;;;;3.50;2.40;;;;;;;;;;4991516;28;20239;-15
2022/06/27 06:14:26;;;;;;;4.82;2.63;;;;;;;;;;4993696;28;20243;-15
2022/06/27 06:16:53;;;;;;;3.47;2.60;;;;;;;;;;4991490;28;20239;-15
2022/06/27 06:19:21;;;;;;;4.20;2.72;;;;;;;;;;4993113;28;20228;-15
2022/06/27 06:21:48;;;;;;;5.18;2.90;;;;;;;;;;4993345;28;20285;-15
2022/06/27 06:24:15;;;;;;;4.32;3.10;;;;;;;;;;4993156;28;20232;-15
2022/06/27 06:26:45;;;;;;;4.03;3.13;;;;;;;;;;4990147;28;20251;-15
2022/06/27 06:29:14;;;;;;;4.22;2.75;;;;;;;;;;4990513;28;20244;-15
2022/06/27 06:31:44;;;;;;;5.65;2.85;;;;;;;;;;4993725;28;20240;-15
2022/06/27 06:34:11;;;;;;;4.18;3.40;;;;;;;;;;4993063;28;20243;-15
2022/06/27 06:36:39;;;;;;;5.65;3.90;;;;;;;;;;4993184;28;20239;-15
2022/06/27 06:39:06;;;;;;;6.40;3.95;;;;;;;;;;4991891;28;20703;-15
2022/06/27 06:41:35;;;;;;;5.68;3.05;;;;;;;;;;4990988;28;20276;-15
2022/06/27 06:44:02;;;;;;;8.98;3.60;;;;;;;;;;4992301;28;20242;-15
2022/06/27 06:46:30;;;;;;;7.97;3.30;;;;;;;;;;4992398;28;20236;-15
2022/06/27 06:49:02;;;;;;;9.48;4.28;;;;;;;;;;4990924;28;20242;-15
2022/06/27 06:51:31;;;;;;;7.25;3.25;;;;;;;;;;4988797;28;20243;-15
2022/06/27 06:53:59;;;;;;;5.15;3.10;;;;;;;;;;4988810;28;20235;-15
2022/06/27 06:56:28;;;;;;;6.65;3.15;;;;;;;;;;4988509;28;20241;-15
2022/06/27 06:58:55;;;;;;;6.78;2.92;;;;;;;;;;4985954;28;20233;-15
2022/06/27 07:01:23;;;;;;;2.75;2.55;;;;;;;;;;4990915;28;20232;-15
2022/06/27 07:03:51;;;;;;;4.32;2.92;;;;;;;;;;4991425;28;20228;-15
2022/06/27 07:06:24;;;;;;;4.35;2.80;;;;;;;;;;4991994;28;20246;-15
2022/06/27 07:08:53;;;;;;;4.45;3.30;;;;;;;;;;4989082;28;20268;-15
2022/06/27 07:11:22;;;;;;;6.97;3.72;;;;;;;;;;4988623;28;20244;-15
2022/06/27 07:13:51;;;;;;;8.70;3.45;;;;;;;;;;4992697;28;20224;-15
2022/06/27 07:16:18;;;;;;;10.13;3.75;;;;;;;;;;4992256;28;20236;-15
2022/06/27 07:18:46;;;;;;;6.43;3.35;;;;;;;;;;4992260;28;20235;-15
2022/06/27 07:21:14;;;;;;;9.18;3.83;;;;;;;;;;4993251;28;20777;-16
2022/06/27 07:23:42;;;;;;;5.82;3.22;;;;;;;;;;5002537;28;20235;-15
2022/06/27 07:26:10;;;;;;;6.40;3.65;;;;;;;;;;4997112;28;20707;-15
2022/06/27 07:28:41;;;;;;;5.00;3.13;;;;;;;;;;4992985;28;20322;-15
2022/06/27 07:31:11;;;;;;;5.20;3.13;;;;;;;;;;4992465;28;20254;-15
2022/06/27 07:33:39;;;;;;;6.70;3.20;;;;;;;;;;4989322;28;20319;-15
2022/06/27 07:36:08;;;;;;;9.43;3.03;;;;;;;;;;4995403;28;20232;-16
2022/06/27 07:38:38;;;;;;;3.78;3.05;;;;;;;;;;4995010;28;20708;-16
2022/06/27 07:41:07;;;;;;;5.40;2.72;;;;;;;;;;4993871;28;20703;-15
2022/06/27 07:43:34;;;;;;;6.47;2.92;;;;;;;;;;4995103;28;20239;-15
2022/06/27 07:46:02;;;;;;;3.17;2.78;;;;;;;;;;4993655;28;20247;-15
2022/06/27 07:48:29;;;;;;;9.27;2.70;;;;;;;;;;4991243;28;20240;-15
2022/06/27 07:50:56;;;;;;;8.60;3.00;;;;;;;;;;4990473;28;20236;-16
2022/06/27 07:53:24;;;;;;;3.42;2.50;;;;;;;;;;4992237;28;20235;-16
2022/06/27 07:55:52;;;;;;;8.88;3.45;;;;;;;;;;4992393;28;20361;-15
2022/06/27 07:58:24;;;;;;;6.13;3.05;;;;;;;;;;4989672;28;20786;-15
2022/06/27 08:00:52;;;;;;;4.30;3.20;;;;;;;;;;4985471;28;20236;-16
2022/06/27 08:03:39;;;;;;;5.43;3.10;;;;;;;;;;5000117;28;20228;-15
2022/06/27 08:06:08;;;;;;;6.18;3.35;;;;;;;;;;4986755;28;20250;-15
2022/06/27 08:08:37;;;;;;;5.28;2.92;;;;;;;;;;4990649;28;20695;-15
2022/06/27 08:11:04;;;;;;;8.98;3.40;;;;;;;;;;4991565;28;20246;-16
2022/06/27 08:13:35;;;;;;;3.40;3.10;;;;;;;;;;4992066;28;20236;-15
2022/06/27 08:16:02;;;;;;;3.30;3.00;;;;;;;;;;4990293;28;20236;-16
2022/06/27 08:18:31;;;;;;;5.00;3.40;;;;;;;;;;4987744;28;20331;-15
2022/06/27 08:20:59;;;;;;;5.38;3.00;;;;;;;;;;4993265;28;20231;-16
2022/06/27 08:23:27;;;;;;;5.43;3.17;;;;;;;;;;4988926;28;20711;-15
2022/06/27 08:25:54;;;;;;;5.82;3.20;;;;;;;;;;4991276;28;20275;-16
2022/06/27 08:28:22;;;;;;;6.38;3.50;;;;;;;;;;4994307;28;20252;-15
2022/06/27 08:30:52;;;;;;;6.78;3.55;;;;;;;;;;4995351;28;20239;-16
2022/06/27 08:33:20;;;;;;;5.07;3.22;;;;;;;;;;4996644;28;20239;-16
2022/06/27 08:35:48;;;;;;;9.65;3.92;;;;;;;;;;4991071;28;20708;-15
2022/06/27 08:38:16;;;;;;;8.57;3.20;;;;;;;;;;4988485;28;20812;-15
2022/06/27 08:40:44;;;;;;;11.45;3.20;;;;;;;;;;4989201;28;20315;-15
2022/06/27 08:43:12;;;;;;;11.10;3.03;;;;;;;;;;4994761;28;20228;-15
2022/06/27 08:45:39;;;;;;;10.00;3.53;;;;;;;;;;4998145;28;20240;-15
2022/06/27 08:48:09;;;;;;;10.10;3.67;;;;;;;;;;4994346;28;20240;-15
2022/06/27 08:50:36;;;;;;;6.70;3.17;;;;;;;;;;4984461;28;20327;-15
2022/06/27 08:53:04;;;;;;;4.13;2.92;;;;;;;;;;4993607;28;20240;-15
2022/06/27 08:55:33;;;;;;;4.63;3.13;;;;;;;;;;4986982;28;21089;-15
2022/06/27 08:58:02;;;;;;;7.80;4.25;;;;;;;;;;4988624;28;21052;-15
2022/06/27 09:00:30;;;;;;;4.45;3.80;;;;;;;;;;4997494;28;20331;-15
2022/06/27 09:02:57;;;;;;;7.82;3.00;;;;;;;;;;4994225;28;20240;-16
2022/06/27 09:05:27;;;;;;;8.02;3.15;;;;;;;;;;4989764;28;20236;-15
2022/06/27 09:07:55;;;;;;;7.65;3.35;;;;;;;;;;4996577;28;20339;-15
2022/06/27 09:10:26;;;;;;;6.63;3.10;;;;;;;;;;4988568;28;20242;-15
2022/06/27 09:13:02;;;;;;;9.18;3.50;;;;;;;;;;4987581;28;20267;-15
2022/06/27 09:15:30;;;;;;;7.22;3.05;;;;;;;;;;4991433;28;20235;-16
2022/06/27 09:18:01;;;;;;;6.68;3.63;;;;;;;;;;4996379;28;20342;-16
2022/06/27 09:20:49;;;;;;;12.60;3.97;;;;;;;;;;4998205;28;20236;-15
2022/06/27 09:23:26;;;;;;;10.98;3.80;;;;;;;;;;4986856;28;20236;-15
2022/06/27 09:25:58;;;;;;;9.75;3.90;;;;;;;;;;4989150;28;20235;-15
2022/06/27 09:28:53;;;;;;;11.50;3.55;;;;;;;;;;4986775;28;20375;-15
2022/06/27 09:31:31;;;;;;;13.85;3.53;;;;;;;;;;4950652;28;20232;-16
2022/06/27 09:34:03;;;;;;;5.13;3.60;;;;;;;;;;4986518;28;20247;-16
2022/06/27 09:36:32;;;;;;;5.78;3.70;;;;;;;;;;4986194;28;20240;-15
2022/06/27 09:39:01;;;;;;;9.77;4.03;;;;;;;;;;4997405;28;20231;-15
2022/06/27 09:41:30;;;;;;;9.77;4.75;;;;;;;;;;4986192;28;20315;-15
2022/06/27 09:44:00;;;;;;;8.98;4.07;;;;;;;;;;4989701;28;20231;-15
2022/06/27 09:46:29;;;;;;;6.22;3.95;;;;;;;;;;4993124;28;20626;-15
2022/06/27 09:48:58;;;;;;;6.85;4.05;;;;;;;;;;4990931;28;20228;-15
2022/06/27 09:51:25;;;;;;;5.93;4.55;;;;;;;;;;4990016;28;20985;-15
2022/06/27 09:53:58;;;;;;;5.78;3.72;;;;;;;;;;4990948;28;20228;-15
2022/06/27 09:56:26;;;;;;;5.28;3.58;;;;;;;;;;4996461;28;20267;-15
2022/06/27 09:58:54;;;;;;;6.65;3.85;;;;;;;;;;5003820;28;20936;-15
2022/06/27 10:01:38;;;;;;;5.22;3.60;;;;;;;;;;4992574;28;20283;-15
2022/06/27 10:04:06;;;;;;;4.68;3.92;;;;;;;;;;5001961;28;20327;-15
2022/06/27 10:06:33;;;;;;;4.60;4.00;;;;;;;;;;4996617;28;20269;-15
2022/06/27 10:09:04;;;;;;;5.38;3.75;;;;;;;;;;4992403;28;20236;-15
2022/06/27 10:11:31;;;;;;;5.30;4.05;;;;;;;;;;4992852;28;21031;-15
2022/06/27 10:14:11;;;;;;;5.40;4.45;;;;;;;;;;4993241;28;20231;-15
2022/06/27 10:16:53;;;;;;;4.72;4.20;;;;;;;;;;4995619;28;20290;-15
2022/06/27 10:19:20;;;;;;;4.93;4.40;;;;;;;;;;4998666;28;20773;-15
2022/06/27 10:21:48;;;;;;;5.75;4.07;;;;;;;;;;4998161;28;20258;-15
2022/06/27 10:24:32;;;;;;;3.92;3.63;;;;;;;;;;5002229;28;20737;-15
2022/06/27 10:27:03;;;;;;;6.53;3.85;;;;;;;;;;4993372;28;20283;-15
2022/06/27 10:29:33;;;;;;;4.63;3.58;;;;;;;;;;4980904;28;20232;-15
2022/06/27 10:32:00;;;;;;;3.88;3.47;;;;;;;;;;4995947;28;20240;-15
2022/06/27 10:34:43;;;;;;;3.70;3.13;;;;;;;;;;4993863;28;20239;-15
2022/06/27 10:37:29;;;;;;;6.72;3.50;;;;;;;;;;4992312;28;20239;-15
2022/06/27 10:40:21;;;;;;;4.47;3.15;;;;;;;;;;4993691;28;20231;-15
2022/06/27 10:42:48;;;;;;;5.72;4.15;;;;;;;;;;4992291;28;20228;-15
2022/06/27 10:45:22;;;;;;;4.15;3.75;;;;;;;;;;4994748;28;20236;-15
2022/06/27 10:47:50;;;;;;;4.50;3.17;;;;;;;;;;4995037;28;20238;-15
2022/06/27 10:50:17;;;;;;;4.93;3.30;;;;;;;;;;4993360;28;20229;-15
2022/06/27 10:52:45;;;;;;;4.05;3.75;;;;;;;;;;4992825;28;20267;-15
2022/06/27 10:55:31;;;;;;;4.45;3.10;;;;;;;;;;4993454;28;20238;-15
2022/06/27 10:58:00;;;;;;;3.58;3.28;;;;;;;;;;4993708;28;20263;-15
2022/06/27 11:00:48;;;;;;;5.22;3.45;;;;;;;;;;4996526;28;20231;-15
2022/06/27 11:03:20;;;;;;;3.70;3.33;;;;;;;;;;4993169;28;20695;-15
2022/06/27 11:05:55;;;;;;;3.42;3.13;;;;;;;;;;4993297;28;20243;-15
2022/06/27 11:08:22;;;;;;;3.50;2.97;;;;;;;;;;4993190;28;20253;-15
2022/06/27 11:10:49;;;;;;;3.33;3.03;;;;;;;;;;4992975;28;20232;-15
2022/06/27 11:13:36;;;;;;;3.92;3.00;;;;;;;;;;5006487;28;20664;-15
2022/06/27 11:16:05;;;;;;;3.30;3.00;;;;;;;;;;5001013;28;20238;-15
2022/06/27 11:18:40;;;;;;;5.15;3.58;;;;;;;;;;4999068;28;20228;-15
2022/06/27 11:21:07;;;;;;;3.83;3.10;;;;;;;;;;4994746;28;20232;-15
2022/06/27 11:23:47;;;;;;;4.25;3.00;;;;;;;;;;4992852;28;20232;-15
2022/06/27 11:26:14;;;;;;;3.47;3.13;;;;;;;;;;4992357;28;20236;-15
2022/06/27 11:34:26;;;;;;;4.10;3.53;;;;;;;;;;4992769;28;20272;-15
2022/06/27 11:36:54;;;;;;;3.63;2.95;;;;;;;;;;4992104;28;20232;-15
2022/06/27 11:39:24;;;;;;;3.33;3.03;;;;;;;;;;4992903;28;20674;-15
2022/06/27 11:41:54;;;;;;;4.78;3.20;;;;;;;;;;4993025;28;20236;-15
2022/06/27 11:44:21;;;;;;;3.50;3.20;;;;;;;;;;4992290;28;20979;-15
2022/06/27 11:46:53;;;;;;;4.63;3.40;;;;;;;;;;4992419;28;20699;-15
2022/06/27 11:49:27;;;;;;;3.25;3.03;;;;;;;;;;4992796;28;20236;-15
2022/06/27 11:51:57;;;;;;;3.40;3.10;;;;;;;;;;4992546;28;20232;-15
2022/06/27 11:54:25;;;;;;;3.65;3.35;;;;;;;;;;4991224;28;20984;-15
2022/06/27 11:56:53;;;;;;;3.60;3.30;;;;;;;;;;4991935;28;20718;-15
2022/06/27 11:59:21;;;;;;;3.97;3.40;;;;;;;;;;4992128;28;20262;-15
2022/06/27 12:01:53;;;;;;;3.25;2.95;;;;;;;;;;4999452;28;20240;-15
2022/06/27 12:04:21;;;;;;;3.58;3.20;;;;;;;;;;4992674;28;20303;-15
2022/06/27 12:06:53;;;;;;;3.20;2.92;;;;;;;;;;4979069;28;20236;-15
2022/06/27 12:09:21;;;;;;;3.15;2.95;;;;;;;;;;4991361;28;21136;-15
2022/06/27 12:11:56;;;;;;;4.53;2.90;;;;;;;;;;4992157;28;20233;-15
2022/06/27 12:14:24;;;;;;;3.72;3.42;;;;;;;;;;4991885;28;20239;-15
2022/06/27 12:16:53;;;;;;;4.03;3.63;;;;;;;;;;5001972;28;20228;-15
2022/06/27 12:19:25;;;;;;;3.83;3.53;;;;;;;;;;4990799;28;20228;-15
2022/06/27 12:21:53;;;;;;;4.13;3.25;;;;;;;;;;4991750;28;20248;-15
2022/06/27 12:24:20;;;;;;;3.72;3.42;;;;;;;;;;4991807;28;20236;-15
2022/06/27 12:26:48;;;;;;;3.42;3.10;;;;;;;;;;4992484;28;20233;-15
2022/06/27 12:29:15;;;;;;;3.67;3.38;;;;;;;;;;4991127;28;20697;-15
2022/06/27 12:31:43;;;;;;;4.20;3.70;;;;;;;;;;4994370;28;20230;-15
2022/06/27 12:34:12;;;;;;;4.65;3.60;;;;;;;;;;4991319;28;20706;-15
2022/06/27 12:36:39;;;;;;;3.58;3.28;;;;;;;;;;4991998;28;20238;-15
2022/06/27 12:39:08;;;;;;;5.32;3.92;;;;;;;;;;4991706;28;20283;-15
2022/06/27 12:41:36;;;;;;;4.07;3.72;;;;;;;;;;4991075;28;20725;-15
2022/06/27 12:44:03;;;;;;;4.15;3.75;;;;;;;;;;4991382;28;20252;-15
2022/06/27 12:46:31;;;;;;;3.75;3.20;;;;;;;;;;4995646;28;20319;-15
2022/06/27 12:49:19;;;;;;;3.95;3.30;;;;;;;;;;4991785;28;20737;-15
2022/06/27 12:51:47;;;;;;;3.80;3.10;;;;;;;;;;4990803;28;20339;-15
2022/06/27 12:54:15;;;;;;;4.25;3.45;;;;;;;;;;4991720;28;20324;-15
2022/06/27 12:56:43;;;;;;;4.22;3.38;;;;;;;;;;4991821;28;20235;-15
2022/06/27 12:59:10;;;;;;;3.55;3.25;;;;;;;;;;4991337;28;20240;-15
2022/06/27 13:01:37;;;;;;;3.65;3.35;;;;;;;;;;4992772;28;20238;-15
2022/06/27 13:04:05;;;;;;;3.83;3.38;;;;;;;;;;4991132;28;20283;-15
2022/06/27 13:06:35;;;;;;;3.40;3.10;;;;;;;;;;4991640;28;20311;-15
2022/06/27 13:09:03;;;;;;;3.45;3.15;;;;;;;;;;4990584;28;20247;-15
2022/06/27 13:11:30;;;;;;;4.45;3.50;;;;;;;;;;4991755;28;20240;-15
2022/06/27 13:13:58;;;;;;;4.10;3.30;;;;;;;;;;4997288;28;20239;-15
2022/06/27 13:16:25;;;;;;;3.38;3.13;;;;;;;;;;5001183;28;20272;-15
2022/06/27 13:18:53;;;;;;;3.45;2.97;;;;;;;;;;4991214;28;20228;-15
2022/06/27 13:21:20;;;;;;;3.47;3.17;;;;;;;;;;4990906;28;20777;-16
2022/06/27 13:23:49;;;;;;;3.33;3.03;;;;;;;;;;4990996;28;20239;-15
2022/06/27 13:26:37;;;;;;;3.50;3.13;;;;;;;;;;4991764;28;20247;-15
2022/06/27 13:29:04;;;;;;;4.03;3.67;;;;;;;;;;4990872;28;20785;-15
2022/06/27 13:31:31;;;;;;;3.33;3.03;;;;;;;;;;4993467;28;20267;-15
2022/06/27 13:33:59;;;;;;;3.67;3.30;;;;;;;;;;4990678;28;20224;-15
2022/06/27 13:36:26;;;;;;;5.18;3.15;;;;;;;;;;4981751;28;21509;-15
2022/06/27 13:38:55;;;;;;;4.03;3.10;;;;;;;;;;4991200;28;21013;-15
2022/06/27 13:41:22;;;;;;;3.10;2.90;;;;;;;;;;4991250;28;20240;-15
2022/06/27 13:43:50;;;;;;;3.53;3.20;;;;;;;;;;4990920;28;20695;-15
2022/06/27 13:46:17;;;;;;;2.80;2.60;;;;;;;;;;4990374;28;20232;-15
2022/06/27 13:48:45;;;;;;;3.38;3.10;;;;;;;;;;4990665;28;20327;-15
2022/06/27 13:51:12;;;;;;;3.10;2.70;;;;;;;;;;4990655;28;20240;-15
2022/06/27 13:53:40;;;;;;;3.33;3.03;;;;;;;;;;4991042;28;20271;-15
2022/06/27 13:56:08;;;;;;;2.90;2.70;;;;;;;;;;4990964;28;20235;-15
2022/06/27 13:58:36;;;;;;;3.40;3.10;;;;;;;;;;4996075;28;20224;-15
2022/06/27 14:01:03;;;;;;;3.72;3.20;;;;;;;;;;4995091;28;20810;-15
2022/06/27 14:03:31;;;;;;;3.58;3.25;;;;;;;;;;4994010;28;20235;-15
2022/06/27 14:08:50;;;;;;;3.00;2.80;;;;;;;;;;4993413;28;20636;-15
2022/06/27 14:11:19;;;;;;;4.45;3.00;;;;;;;;;;4993978;28;20232;-15
2022/06/27 14:13:47;;;;;;;3.25;2.95;;;;;;;;;;4994724;28;20263;-15
2022/06/27 14:16:15;;;;;;;3.60;3.30;;;;;;;;;;4993903;28;20319;-15
2022/06/27 14:18:42;;;;;;;3.40;3.10;;;;;;;;;;4980876;28;20707;-15
2022/06/27 14:21:10;;;;;;;3.15;2.95;;;;;;;;;;4992415;28;20323;-16
2022/06/27 14:23:37;;;;;;;4.63;3.08;;;;;;;;;;4993142;28;20234;-15
2022/06/27 14:26:04;;;;;;;3.50;3.20;;;;;;;;;;4993415;28;20240;-15
2022/06/27 14:28:33;;;;;;;3.80;2.95;;;;;;;;;;4993943;28;20236;-15
2022/06/27 14:31:00;;;;;;;4.25;3.35;;;;;;;;;;4994400;28;20244;-15
2022/06/27 14:33:31;;;;;;;4.57;3.20;;;;;;;;;;4993672;28;20234;-15
2022/06/27 14:35:59;;;;;;;3.28;2.97;;;;;;;;;;4993405;28;21052;-15
2022/06/27 14:38:31;;;;;;;5.78;3.55;;;;;;;;;;4980284;28;20291;-15
2022/06/27 14:40:58;;;;;;;3.40;3.10;;;;;;;;;;4979518;28;20236;-15
2022/06/27 14:43:26;;;;;;;6.43;3.10;;;;;;;;;;4995263;28;20232;-15
2022/06/27 14:45:55;;;;;;;9.65;4.85;;;;;;;;;;4992657;28;20324;-15
2022/06/27 14:48:22;;;;;;;9.98;4.47;;;;;;;;;;4991075;28;20254;-15
2022/06/27 14:50:50;;;;;;;6.80;4.10;;;;;;;;;;4993181;28;20263;-15
2022/06/27 14:53:18;;;;;;;7.05;2.90;;;;;;;;;;4990845;28;20242;-15
2022/06/27 14:55:45;;;;;;;6.65;2.53;;;;;;;;;;4996564;28;20231;-15
2022/06/27 14:58:12;;;;;;;3.40;1.98;;;;;;;;;;4992155;28;20236;-15
2022/06/27 15:00:40;;;;;;;5.15;1.92;;;;;;;;;;4996001;28;20242;-15
2022/06/27 15:03:09;;;;;;;3.00;1.63;;;;;;;;;;4993917;28;20236;-15
2022/06/27 15:05:36;;;;;;;2.40;1.90;;;;;;;;;;4990513;28;20244;-15